Terminal Aerodrome Forecast
Issued by NWS

Home | Current Version | Previous Version | Text Only | Print | Product List | Glossary On
Versions: 1 2 3 4 5 6 7 8 9 10 11 12 13 14
000
FTUS42 TJSJ 041100
TAFNCM
TAF
TNCM 041121Z 0412/0512 08014KT P6SM VCSH SCT018 BKN035
      TEMPO 0412/0414 VRB14G24KT -SHRA BKN018
     FM041430 09017KT P6SM FEW022 SCT040
     FM042230 08014KT P6SM SCT020=

USA.gov is the U.S. government's official web portal to all federal, state and local government web resources and services.